createdAt,value
2023-03-25T00:00:16.658Z,24.50
2023-03-25T00:02:50.282Z,24.50
2023-03-25T00:05:19.931Z,23.63
2023-03-25T00:07:50.507Z,24.93
2023-03-25T00:10:17.795Z,25.43
2023-03-25T00:12:44.835Z,24.20
2023-03-25T00:15:12.859Z,24.30
2023-03-25T00:17:39.687Z,24.90
2023-03-25T00:20:11.379Z,24.83
2023-03-25T00:22:44.510Z,26.43
2023-03-25T00:25:18.877Z,23.77
2023-03-25T00:27:47.200Z,24.60
2023-03-25T00:30:15.701Z,25.67
2023-03-25T00:32:45.768Z,25.00
2023-03-25T00:35:13.776Z,25.37
2023-03-25T00:37:41.181Z,24.90
2023-03-25T00:40:08.956Z,24.27
2023-03-25T00:42:35.749Z,24.90
2023-03-25T00:45:03.119Z,25.37
2023-03-25T00:47:30.104Z,23.73
2023-03-25T00:49:56.853Z,25.33
2023-03-25T00:52:23.580Z,25.40
2023-03-25T00:54:52.690Z,24.90
2023-03-25T00:57:22.126Z,24.73
2023-03-25T00:59:50.304Z,25.30
2023-03-25T01:02:18.917Z,25.87
2023-03-25T01:04:46.629Z,24.77
2023-03-25T01:07:16.050Z,27.00
2023-03-25T01:09:46.377Z,24.30
2023-03-25T01:12:15.490Z,24.73
2023-03-25T01:14:42.557Z,25.10
2023-03-25T01:17:10.233Z,24.37
2023-03-25T01:19:37.264Z,24.60
2023-03-25T01:22:04.096Z,24.47
2023-03-25T01:24:31.492Z,25.03
2023-03-25T01:26:58.498Z,25.17
2023-03-25T01:29:28.144Z,23.93
2023-03-25T01:31:55.537Z,24.53
2023-03-25T01:34:22.625Z,23.23
2023-03-25T01:36:50.036Z,24.80
2023-03-25T01:39:18.746Z,24.23
2023-03-25T01:41:50.045Z,24.07
2023-03-25T01:44:20.997Z,26.67
2023-03-25T01:46:49.670Z,25.27
2023-03-25T01:49:24.416Z,25.53
2023-03-25T01:52:19.006Z,26.27
2023-03-25T01:54:47.691Z,25.43
2023-03-25T01:57:19.464Z,25.23
2023-03-25T01:59:46.962Z,26.97
2023-03-25T02:02:15.684Z,25.97
2023-03-25T02:04:42.694Z,27.53
2023-03-25T02:07:10.104Z,26.13
2023-03-25T02:09:38.058Z,26.13
2023-03-25T02:12:07.367Z,26.13
2023-03-25T02:14:37.084Z,26.43
2023-03-25T02:17:39.053Z,26.00
2023-03-25T02:20:24.038Z,25.33
2023-03-25T02:23:21.783Z,27.87
2023-03-25T02:25:54.872Z,26.33
2023-03-25T02:28:41.873Z,27.37
2023-03-25T02:31:34.663Z,27.57
2023-03-25T02:34:14.133Z,28.70
2023-03-25T02:37:19.074Z,28.37
2023-03-25T02:39:56.392Z,27.87
2023-03-25T02:43:01.770Z,27.00
2023-03-25T02:45:40.249Z,28.20
2023-03-25T02:48:21.817Z,28.50
2023-03-25T02:50:57.737Z,28.80
2023-03-25T02:53:29.634Z,28.80
2023-03-25T02:56:01.248Z,28.03
2023-03-25T02:58:30.094Z,26.40
2023-03-25T03:01:00.306Z,26.57
2023-03-25T03:03:28.151Z,26.03
2023-03-25T03:06:01.658Z,26.60
2023-03-25T03:08:50.327Z,30.13
2023-03-25T03:11:22.952Z,27.87
2023-03-25T03:13:58.507Z,27.23
2023-03-25T03:16:34.077Z,26.10
2023-03-25T03:19:21.175Z,27.00
2023-03-25T03:22:17.650Z,27.17
2023-03-25T03:24:51.310Z,27.03
2023-03-25T03:27:34.099Z,25.50
2023-03-25T03:30:10.769Z,28.30
2023-03-25T03:33:21.754Z,26.50
2023-03-25T03:36:13.588Z,25.63
2023-03-25T03:38:46.577Z,27.43
2023-03-25T03:41:19.165Z,28.17
2023-03-25T03:43:52.101Z,25.73
2023-03-25T03:46:24.575Z,27.97
2023-03-25T03:48:59.789Z,26.17
2023-03-25T03:51:40.359Z,27.00
2023-03-25T03:54:16.037Z,27.97
2023-03-25T03:56:57.209Z,27.00
2023-03-25T03:59:42.520Z,25.70
2023-03-25T04:02:23.440Z,26.03
2023-03-25T04:04:53.818Z,26.50
2023-03-25T04:07:46.593Z,26.03
2023-03-25T04:10:34.771Z,27.20
2023-03-25T04:13:05.603Z,27.17
2023-03-25T04:15:32.482Z,26.80
2023-03-25T04:18:01.590Z,28.03
2023-03-25T04:20:33.945Z,28.30
2023-03-25T04:23:01.269Z,27.23
2023-03-25T04:25:29.604Z,26.40
2023-03-25T04:27:58.867Z,26.20
2023-03-25T04:30:28.249Z,26.10
2023-03-25T04:32:55.338Z,27.20
2023-03-25T04:35:22.202Z,26.83
2023-03-25T04:37:49.164Z,31.40
2023-03-25T04:40:18.699Z,27.83
2023-03-25T04:42:46.565Z,27.53
2023-03-25T04:45:16.936Z,27.93
2023-03-25T04:47:47.151Z,30.10
2023-03-25T04:50:24.163Z,30.87
2023-03-25T04:52:53.053Z,27.77
2023-03-25T04:55:21.294Z,28.47
2023-03-25T04:57:50.855Z,27.87
2023-03-25T05:00:20.739Z,27.77
2023-03-25T05:02:49.787Z,27.80
2023-03-25T05:05:19.569Z,28.30
2023-03-25T05:07:50.745Z,27.47
2023-03-25T05:10:19.606Z,28.47
2023-03-25T05:12:46.696Z,27.07
2023-03-25T05:15:14.505Z,27.50
2023-03-25T05:17:41.294Z,26.70
2023-03-25T05:20:08.930Z,27.80
2023-03-25T05:22:37.825Z,26.43
2023-03-25T05:25:10.029Z,28.47
2023-03-25T05:27:38.158Z,27.10
2023-03-25T05:30:06.618Z,28.87
2023-03-25T05:32:33.671Z,28.73
2023-03-25T05:35:01.095Z,25.13
2023-03-25T05:37:28.377Z,26.93
2023-03-25T05:39:56.304Z,28.40
2023-03-25T05:42:23.767Z,27.13
2023-03-25T05:44:51.601Z,27.23
2023-03-25T05:47:21.720Z,28.10
2023-03-25T05:49:49.716Z,27.40
2023-03-25T05:52:18.021Z,27.03
2023-03-25T05:54:45.743Z,27.83
2023-03-25T05:57:13.313Z,25.80
2023-03-25T05:59:40.640Z,27.37
2023-03-25T06:02:16.582Z,27.77
2023-03-25T06:04:43.795Z,27.43
2023-03-25T06:07:19.705Z,25.57
2023-03-25T06:09:50.063Z,25.83
2023-03-25T06:12:19.965Z,26.50
2023-03-25T06:14:48.026Z,27.30
2023-03-25T06:17:18.964Z,27.63
2023-03-25T06:19:45.751Z,25.67
2023-03-25T06:22:12.825Z,27.53
2023-03-25T06:24:41.186Z,26.87
2023-03-25T06:27:12.837Z,27.27
2023-03-25T06:29:41.803Z,25.77
2023-03-25T06:32:10.170Z,28.93
2023-03-25T06:34:37.267Z,26.40
2023-03-25T06:37:04.186Z,27.97
2023-03-25T06:39:31.425Z,27.00
2023-03-25T06:42:00.874Z,25.90
2023-03-25T06:44:36.523Z,27.60
2023-03-25T06:47:23.041Z,26.27
2023-03-25T06:49:50.448Z,27.33
2023-03-25T06:52:17.344Z,26.77
2023-03-25T06:54:44.145Z,25.90
2023-03-25T06:57:10.886Z,26.83
2023-03-25T06:59:37.780Z,27.10
2023-03-25T07:02:04.534Z,26.07
2023-03-25T07:04:31.440Z,27.47
2023-03-25T07:06:58.245Z,27.10
2023-03-25T07:09:25.003Z,28.97
2023-03-25T07:11:51.753Z,28.80
2023-03-25T07:14:18.517Z,30.03
2023-03-25T07:16:45.383Z,29.23
2023-03-25T07:19:12.157Z,30.07
2023-03-25T07:21:38.915Z,27.97
2023-03-25T07:24:05.949Z,28.50
2023-03-25T07:26:32.931Z,29.50
2023-03-25T07:28:59.769Z,30.00
2023-03-25T07:31:26.510Z,28.53
2023-03-25T07:33:53.283Z,29.50
2023-03-25T07:36:21.922Z,28.93
2023-03-25T07:38:48.707Z,30.97
2023-03-25T07:41:15.693Z,30.30
2023-03-25T07:44:06.207Z,30.50
2023-03-25T07:46:32.991Z,29.07
2023-03-25T07:48:59.780Z,29.00
2023-03-25T07:51:26.732Z,31.97
2023-03-25T07:53:53.479Z,31.43
2023-03-25T07:56:20.445Z,31.60
2023-03-25T07:58:49.567Z,31.10
2023-03-25T08:01:16.429Z,29.83
2023-03-25T08:03:43.269Z,29.80
2023-03-25T08:06:10.277Z,29.17
2023-03-25T08:08:37.291Z,29.17
2023-03-25T08:11:04.525Z,32.53
2023-03-25T08:13:31.420Z,30.47
2023-03-25T08:15:58.182Z,29.53
2023-03-25T08:18:25.662Z,30.70
2023-03-25T08:20:52.567Z,32.63
2023-03-25T08:23:20.449Z,29.30
2023-03-25T08:25:49.337Z,29.30
2023-03-25T08:28:21.844Z,29.13
2023-03-25T08:30:49.777Z,29.70
2023-03-25T08:33:18.542Z,30.00
2023-03-25T08:35:45.355Z,32.10
2023-03-25T08:38:12.290Z,30.03
2023-03-25T08:40:42.619Z,30.20
2023-03-25T08:43:10.211Z,29.97
2023-03-25T08:45:37.033Z,30.40
2023-03-25T08:48:04.402Z,30.37
2023-03-25T08:50:31.169Z,29.40
2023-03-25T08:52:58.702Z,28.60
2023-03-25T08:55:26.835Z,28.83
2023-03-25T08:57:53.670Z,30.17
2023-03-25T09:00:24.259Z,30.40
2023-03-25T09:02:51.615Z,38.37
2023-03-25T09:05:19.139Z,33.53
2023-03-25T09:07:46.768Z,39.77
2023-03-25T09:10:14.206Z,31.87
2023-03-25T09:12:41.278Z,28.27
2023-03-25T09:15:09.424Z,27.67
2023-03-25T09:17:36.313Z,25.60
2023-03-25T09:20:04.173Z,25.13
2023-03-25T09:22:30.938Z,24.97
2023-03-25T09:24:57.715Z,26.70
2023-03-25T09:27:24.448Z,26.47
2023-03-25T09:29:51.402Z,26.57
2023-03-25T09:32:18.705Z,28.50
2023-03-25T09:34:45.712Z,27.77
2023-03-25T09:37:12.498Z,29.27
2023-03-25T09:39:39.258Z,27.40
2023-03-25T09:42:27.163Z,27.27
2023-03-25T09:45:21.437Z,24.90
2023-03-25T09:48:13.987Z,25.03
2023-03-25T09:50:43.132Z,25.03
2023-03-25T09:53:09.833Z,26.07
2023-03-25T09:55:44.629Z,26.17
2023-03-25T09:58:26.971Z,25.87
2023-03-25T10:01:29.975Z,25.43
2023-03-25T10:04:14.946Z,26.20
2023-03-25T10:06:58.170Z,25.90
2023-03-25T10:09:53.034Z,25.27
2023-03-25T10:12:41.573Z,25.90
2023-03-25T10:15:21.561Z,27.30
2023-03-25T10:18:29.665Z,28.97
2023-03-25T10:21:31.100Z,25.80
2023-03-25T10:24:12.924Z,24.80
2023-03-25T10:27:06.106Z,24.60
2023-03-25T10:29:47.332Z,24.70
2023-03-25T10:32:18.326Z,24.70
2023-03-25T10:34:54.239Z,24.13
2023-03-25T10:37:30.084Z,24.00
2023-03-25T10:40:13.229Z,24.80
2023-03-25T10:42:47.965Z,25.40
2023-03-25T10:45:18.082Z,25.77
2023-03-25T10:47:47.434Z,24.30
2023-03-25T10:50:19.142Z,25.40
2023-03-25T10:52:48.940Z,25.03
2023-03-25T10:55:25.801Z,24.47
2023-03-25T10:57:54.028Z,24.20
2023-03-25T11:00:23.180Z,25.07
2023-03-25T11:02:50.768Z,24.60
2023-03-25T11:05:20.759Z,24.73
2023-03-25T11:07:53.981Z,26.57
2023-03-25T11:10:24.874Z,24.47
2023-03-25T11:12:53.827Z,24.80
2023-03-25T11:15:31.752Z,25.70
2023-03-25T11:18:08.269Z,26.40
2023-03-25T11:20:40.330Z,24.43
2023-03-25T11:23:31.388Z,24.87
2023-03-25T11:26:06.083Z,25.50
2023-03-25T11:28:39.139Z,25.13
2023-03-25T11:31:09.356Z,24.53
2023-03-25T11:33:37.117Z,25.83
2023-03-25T11:36:17.691Z,23.73
2023-03-25T11:38:50.984Z,24.90
2023-03-25T11:41:17.854Z,25.57
2023-03-25T11:43:48.800Z,25.10
2023-03-25T11:46:21.655Z,25.07
2023-03-25T11:48:50.142Z,25.27
2023-03-25T11:51:24.388Z,24.43
2023-03-25T11:54:03.004Z,23.67
2023-03-25T11:56:35.970Z,22.77
2023-03-25T11:59:07.385Z,24.30
2023-03-25T12:01:48.148Z,24.27
2023-03-25T12:04:20.881Z,25.13
2023-03-25T12:07:00.369Z,27.00
2023-03-25T12:09:30.762Z,24.07
2023-03-25T12:12:11.768Z,25.10
2023-03-25T12:14:57.024Z,22.17
2023-03-25T12:17:46.202Z,23.17
2023-03-25T12:20:46.389Z,24.57
2023-03-25T12:23:29.805Z,23.83
2023-03-25T12:26:11.067Z,23.43
2023-03-25T12:28:59.471Z,23.60
2023-03-25T12:31:26.180Z,24.90
2023-03-25T12:34:01.915Z,21.57
2023-03-25T12:36:44.688Z,21.20
2023-03-25T12:39:42.916Z,19.87
2023-03-25T12:42:34.941Z,19.33
2023-03-25T12:45:37.548Z,19.90
2023-03-25T12:48:30.037Z,21.17
2023-03-25T12:51:11.714Z,21.03
2023-03-25T12:54:05.833Z,21.47
2023-03-25T12:56:54.798Z,21.50
2023-03-25T12:59:46.988Z,20.67
2023-03-25T13:02:37.166Z,22.53
2023-03-25T13:05:06.751Z,21.73
2023-03-25T13:07:40.965Z,22.27
2023-03-25T13:10:17.685Z,22.00
2023-03-25T13:12:53.725Z,21.93
2023-03-25T13:15:27.702Z,23.17
2023-03-25T13:18:26.762Z,23.27
2023-03-25T13:21:21.633Z,21.53
2023-03-25T13:23:56.932Z,21.20
2023-03-25T13:26:29.351Z,19.80
2023-03-25T13:29:05.845Z,20.07
2023-03-25T13:31:37.888Z,21.00
2023-03-25T13:34:39.980Z,20.60
2023-03-25T13:37:21.874Z,19.93
2023-03-25T13:40:14.448Z,20.27
2023-03-25T13:42:59.822Z,20.50
2023-03-25T13:45:30.405Z,20.70
2023-03-25T13:47:57.258Z,21.00
2023-03-25T13:50:30.720Z,20.47
2023-03-25T13:53:27.013Z,20.43
2023-03-25T13:56:30.246Z,20.63
2023-03-25T13:59:16.080Z,20.43
2023-03-25T14:02:04.311Z,21.43
2023-03-25T14:04:42.762Z,20.53
2023-03-25T14:07:24.803Z,21.17
2023-03-25T14:09:52.227Z,21.50
2023-03-25T14:12:24.077Z,22.07
2023-03-25T14:15:00.171Z,22.33
2023-03-25T14:17:29.872Z,26.20
2023-03-25T14:19:59.829Z,25.47
2023-03-25T14:22:32.573Z,26.83
2023-03-25T14:25:00.432Z,27.77
2023-03-25T14:27:32.626Z,25.80
2023-03-25T14:30:21.453Z,24.60
2023-03-25T14:32:49.899Z,25.43
2023-03-25T14:35:34.900Z,24.77
2023-03-25T14:38:08.347Z,24.17
2023-03-25T14:40:55.502Z,22.57
2023-03-25T14:43:40.303Z,24.00
2023-03-25T14:46:13.802Z,22.97
2023-03-25T14:48:49.061Z,22.47
2023-03-25T14:51:28.348Z,22.63
2023-03-25T14:54:01.432Z,22.87
2023-03-25T14:57:16.087Z,22.57
2023-03-25T14:59:50.589Z,21.50
2023-03-25T15:02:24.646Z,22.83
2023-03-25T15:05:05.127Z,23.07
2023-03-25T15:08:00.184Z,22.70
2023-03-25T15:10:36.930Z,23.70
2023-03-25T15:13:12.022Z,22.40
2023-03-25T15:15:44.624Z,23.03
2023-03-25T15:18:13.044Z,23.10
2023-03-25T15:20:39.932Z,22.63
2023-03-25T15:23:30.287Z,22.57
2023-03-25T15:25:59.424Z,23.87
2023-03-25T15:29:01.164Z,22.53
2023-03-25T15:31:40.936Z,20.53
2023-03-25T15:34:26.499Z,21.63
2023-03-25T15:37:43.295Z,21.70
2023-03-25T15:40:41.994Z,23.47
2023-03-25T15:43:20.698Z,23.77
2023-03-25T15:46:24.761Z,24.30
2023-03-25T15:49:38.649Z,24.30
2023-03-25T15:52:44.224Z,24.43
2023-03-25T15:55:19.018Z,24.70
2023-03-25T15:57:49.920Z,24.97
2023-03-25T16:00:24.577Z,24.27
2023-03-25T16:03:06.514Z,24.80
2023-03-25T16:05:39.414Z,23.63
2023-03-25T16:08:18.783Z,24.00
2023-03-25T16:10:46.439Z,25.43
2023-03-25T16:13:23.933Z,25.50
2023-03-25T16:15:57.201Z,26.10
2023-03-25T16:18:24.874Z,24.10
2023-03-25T16:20:57.747Z,25.37
2023-03-25T16:23:27.056Z,24.60
2023-03-25T16:25:56.492Z,24.10
2023-03-25T16:28:29.066Z,25.10
2023-03-25T16:30:55.962Z,24.23
2023-03-25T16:33:28.728Z,25.83
2023-03-25T16:36:02.635Z,25.13
2023-03-25T16:38:31.565Z,24.70
2023-03-25T16:41:03.939Z,25.33
2023-03-25T16:43:31.455Z,25.50
2023-03-25T16:46:01.712Z,25.93
2023-03-25T16:48:32.013Z,26.47
2023-03-25T16:51:19.686Z,26.60
2023-03-25T16:53:50.662Z,27.73
2023-03-25T16:56:17.392Z,27.87
2023-03-25T16:59:16.455Z,28.13
2023-03-25T17:01:50.282Z,29.60
2023-03-25T17:04:22.038Z,28.67
2023-03-25T17:06:55.907Z,30.27
2023-03-25T17:09:34.411Z,29.57
2023-03-25T17:12:06.289Z,30.10
2023-03-25T17:14:37.546Z,28.63
2023-03-25T17:17:33.107Z,29.20
2023-03-25T17:20:11.109Z,30.30
2023-03-25T17:22:39.337Z,30.27
2023-03-25T17:25:32.460Z,30.00
2023-03-25T17:28:31.006Z,33.00
2023-03-25T17:30:58.000Z,35.20
2023-03-25T17:33:35.941Z,31.97
2023-03-25T17:36:07.804Z,30.93
2023-03-25T17:38:50.186Z,33.50
2023-03-25T17:41:18.496Z,33.70
2023-03-25T17:43:51.250Z,33.30
2023-03-25T17:46:31.930Z,30.87
2023-03-25T17:48:59.522Z,31.27
2023-03-25T17:51:28.180Z,33.17
2023-03-25T17:53:55.407Z,34.23
2023-03-25T17:56:28.130Z,31.63
2023-03-25T17:59:02.924Z,33.07
2023-03-25T18:01:31.284Z,31.87
2023-03-25T18:03:58.489Z,34.30
2023-03-25T18:06:25.947Z,33.10
2023-03-25T18:08:53.003Z,34.57
2023-03-25T18:11:20.682Z,35.30
2023-03-25T18:13:50.415Z,33.53
2023-03-25T18:16:19.506Z,32.43
2023-03-25T18:18:46.611Z,31.60
2023-03-25T18:21:15.681Z,32.83
2023-03-25T18:23:47.980Z,31.70
2023-03-25T18:26:18.445Z,33.70
2023-03-25T18:28:48.459Z,30.63
2023-03-25T18:31:17.602Z,31.20
2023-03-25T18:33:50.183Z,31.00
2023-03-25T18:36:18.275Z,31.47
2023-03-25T18:38:45.863Z,31.77
2023-03-25T18:41:17.311Z,29.93
2023-03-25T18:43:44.698Z,30.53
2023-03-25T18:46:13.988Z,30.43
2023-03-25T18:48:41.665Z,31.20
2023-03-25T18:51:13.638Z,30.57
2023-03-25T18:53:41.130Z,30.83
2023-03-25T18:56:08.828Z,29.97
2023-03-25T18:58:36.403Z,33.07
2023-03-25T19:01:06.029Z,31.13
2023-03-25T19:03:38.609Z,31.73
2023-03-25T19:06:09.145Z,29.50
2023-03-25T19:08:36.876Z,30.23
2023-03-25T19:11:16.300Z,30.57
2023-03-25T19:13:47.320Z,30.97
2023-03-25T19:16:14.150Z,30.73
2023-03-25T19:18:40.932Z,33.10
2023-03-25T19:21:08.168Z,32.13
2023-03-25T19:23:36.307Z,34.03
2023-03-25T19:26:04.481Z,33.00
2023-03-25T19:28:31.318Z,32.17
2023-03-25T19:31:00.900Z,34.00
2023-03-25T19:33:30.752Z,31.90
2023-03-25T19:36:01.127Z,33.80
2023-03-25T19:38:28.662Z,34.17
2023-03-25T19:41:10.423Z,35.43
2023-03-25T19:43:37.477Z,35.87
2023-03-25T19:46:05.893Z,33.53
2023-03-25T19:48:33.334Z,36.03
2023-03-25T19:51:00.206Z,36.50
2023-03-25T19:53:28.090Z,37.57
2023-03-25T19:55:56.188Z,38.07
2023-03-25T19:58:23.157Z,34.90
2023-03-25T20:00:51.202Z,35.00
2023-03-25T20:03:22.064Z,36.37
2023-03-25T20:05:50.123Z,35.63
2023-03-25T20:08:16.954Z,35.23
2023-03-25T20:10:44.017Z,37.67
2023-03-25T20:13:11.188Z,34.83
2023-03-25T20:15:37.961Z,36.30
2023-03-25T20:18:06.716Z,35.53
2023-03-25T20:20:33.589Z,37.83
2023-03-25T20:23:00.332Z,37.17
2023-03-25T20:25:27.202Z,36.87
2023-03-25T20:27:55.514Z,37.43
2023-03-25T20:30:22.308Z,36.57
2023-03-25T20:32:49.261Z,37.47
2023-03-25T20:35:17.566Z,36.40
2023-03-25T20:37:46.885Z,37.30
2023-03-25T20:40:17.457Z,36.27
2023-03-25T20:42:46.331Z,35.40
2023-03-25T20:45:15.046Z,36.70
2023-03-25T20:47:42.322Z,35.43
2023-03-25T20:50:12.862Z,36.30
2023-03-25T20:52:40.124Z,36.67
2023-03-25T20:55:09.697Z,36.17
2023-03-25T20:57:37.125Z,35.70
2023-03-25T21:00:04.930Z,34.13
2023-03-25T21:02:32.113Z,35.80
2023-03-25T21:05:01.057Z,34.43
2023-03-25T21:07:31.624Z,34.17
2023-03-25T21:09:59.259Z,36.00
2023-03-25T21:12:36.413Z,37.23
2023-03-25T21:15:10.109Z,32.83
2023-03-25T21:17:37.184Z,34.17
2023-03-25T21:20:07.685Z,33.70
2023-03-25T21:22:35.073Z,35.30
2023-03-25T21:25:01.938Z,35.83
2023-03-25T21:27:39.210Z,38.50
2023-03-25T21:30:09.650Z,37.23
2023-03-25T21:32:39.999Z,35.70
2023-03-25T21:35:08.091Z,36.40
2023-03-25T21:37:37.757Z,35.53
2023-03-25T21:40:08.013Z,35.50
2023-03-25T21:42:38.098Z,35.03
2023-03-25T21:45:07.305Z,36.80
2023-03-25T21:47:34.973Z,35.60
2023-03-25T21:50:02.902Z,38.77
2023-03-25T21:52:29.626Z,36.80
2023-03-25T21:54:59.193Z,35.07
2023-03-25T21:57:26.622Z,35.53
2023-03-25T21:59:56.100Z,33.23
2023-03-25T22:02:22.944Z,34.00
2023-03-25T22:04:49.733Z,33.13
2023-03-25T22:07:16.478Z,34.27
2023-03-25T22:09:43.238Z,32.10
2023-03-25T22:12:10.255Z,35.10
2023-03-25T22:14:36.968Z,35.40
2023-03-25T22:17:03.783Z,35.80
2023-03-25T22:19:31.288Z,34.47
2023-03-25T22:21:58.142Z,33.43
2023-03-25T22:24:24.952Z,34.27
2023-03-25T22:26:51.649Z,35.30
2023-03-25T22:29:18.441Z,35.40
2023-03-25T22:31:45.216Z,33.80
2023-03-25T22:34:15.721Z,34.40
2023-03-25T22:36:49.584Z,33.80
2023-03-25T22:39:18.555Z,36.47
2023-03-25T22:41:46.062Z,33.70
2023-03-25T22:44:16.697Z,34.67
2023-03-25T22:46:44.089Z,34.20
2023-03-25T22:49:10.972Z,33.97
2023-03-25T22:51:37.718Z,34.23
2023-03-25T22:54:05.270Z,34.23
2023-03-25T22:56:35.360Z,34.37
2023-03-25T22:59:04.230Z,34.87
2023-03-25T23:01:31.207Z,35.10
2023-03-25T23:03:58.285Z,33.90
2023-03-25T23:06:26.480Z,36.17
2023-03-25T23:08:56.160Z,35.30
2023-03-25T23:11:28.330Z,35.53
2023-03-25T23:14:01.372Z,35.23
2023-03-25T23:16:30.709Z,34.87
2023-03-25T23:18:58.380Z,36.70
2023-03-25T23:21:29.235Z,35.33
2023-03-25T23:23:58.938Z,34.47
2023-03-25T23:26:38.912Z,34.17
2023-03-25T23:29:09.482Z,33.83
2023-03-25T23:31:37.881Z,33.77
2023-03-25T23:34:07.477Z,36.03
2023-03-25T23:36:39.307Z,35.60
2023-03-25T23:39:08.739Z,34.03
2023-03-25T23:41:36.162Z,36.23
2023-03-25T23:44:03.593Z,36.23
2023-03-25T23:46:31.039Z,33.57
2023-03-25T23:49:02.553Z,34.47
2023-03-25T23:51:38.354Z,32.73
2023-03-25T23:54:06.770Z,32.60
2023-03-25T23:56:34.088Z,32.23
2023-03-25T23:59:01.735Z,31.53
